sensor_id;sensor_type;location;lat;lon;timestamp;P1;durP1;ratioP1;P2;durP2;ratioP2
7402;SDS011;3742;48.770;11.440;2022-12-18T00:00:07;46.47;;;26.10;;
7402;SDS011;3742;48.770;11.440;2022-12-18T00:02:44;45.03;;;27.40;;
7402;SDS011;3742;48.770;11.440;2022-12-18T00:05:13;43.10;;;25.43;;
7402;SDS011;3742;48.770;11.440;2022-12-18T00:07:41;46.37;;;22.20;;
7402;SDS011;3742;48.770;11.440;2022-12-18T00:10:10;43.67;;;23.37;;
7402;SDS011;3742;48.770;11.440;2022-12-18T00:12:41;35.03;;;23.00;;
7402;SDS011;3742;48.770;11.440;2022-12-18T00:15:09;44.20;;;25.20;;
7402;SDS011;3742;48.770;11.440;2022-12-18T00:17:38;39.33;;;25.27;;
7402;SDS011;3742;48.770;11.440;2022-12-18T00:20:09;41.90;;;26.67;;
7402;SDS011;3742;48.770;11.440;2022-12-18T00:22:38;43.90;;;24.97;;
7402;SDS011;3742;48.770;11.440;2022-12-18T00:25:07;41.43;;;24.90;;
7402;SDS011;3742;48.770;11.440;2022-12-18T00:27:35;46.53;;;27.80;;
7402;SDS011;3742;48.770;11.440;2022-12-18T00:30:04;40.60;;;25.13;;
7402;SDS011;3742;48.770;11.440;2022-12-18T00:32:33;42.67;;;27.27;;
7402;SDS011;3742;48.770;11.440;2022-12-18T00:35:02;39.40;;;25.37;;
7402;SDS011;3742;48.770;11.440;2022-12-18T00:37:34;45.53;;;27.00;;
7402;SDS011;3742;48.770;11.440;2022-12-18T00:40:03;40.13;;;24.67;;
7402;SDS011;3742;48.770;11.440;2022-12-18T00:42:32;46.37;;;26.80;;
7402;SDS011;3742;48.770;11.440;2022-12-18T00:45:21;41.20;;;25.90;;
7402;SDS011;3742;48.770;11.440;2022-12-18T00:47:50;38.17;;;24.53;;
7402;SDS011;3742;48.770;11.440;2022-12-18T00:50:19;44.33;;;27.93;;
7402;SDS011;3742;48.770;11.440;2022-12-18T00:52:50;44.53;;;27.70;;
7402;SDS011;3742;48.770;11.440;2022-12-18T00:55:18;46.13;;;28.47;;
7402;SDS011;3742;48.770;11.440;2022-12-18T00:57:47;41.60;;;26.37;;
7402;SDS011;3742;48.770;11.440;2022-12-18T01:00:16;46.33;;;27.67;;
7402;SDS011;3742;48.770;11.440;2022-12-18T01:02:44;51.50;;;30.33;;
7402;SDS011;3742;48.770;11.440;2022-12-18T01:05:13;46.50;;;28.03;;
7402;SDS011;3742;48.770;11.440;2022-12-18T01:07:42;49.00;;;29.90;;
7402;SDS011;3742;48.770;11.440;2022-12-18T01:10:12;47.73;;;28.73;;
7402;SDS011;3742;48.770;11.440;2022-12-18T01:12:40;50.60;;;30.23;;
7402;SDS011;3742;48.770;11.440;2022-12-18T01:15:10;49.93;;;30.17;;
7402;SDS011;3742;48.770;11.440;2022-12-18T01:17:40;47.67;;;29.33;;
7402;SDS011;3742;48.770;11.440;2022-12-18T01:20:09;44.80;;;27.50;;
7402;SDS011;3742;48.770;11.440;2022-12-18T01:22:38;46.90;;;27.77;;
7402;SDS011;3742;48.770;11.440;2022-12-18T01:25:07;45.60;;;28.13;;
7402;SDS011;3742;48.770;11.440;2022-12-18T01:27:37;41.57;;;26.97;;
7402;SDS011;3742;48.770;11.440;2022-12-18T01:30:06;44.63;;;28.00;;
7402;SDS011;3742;48.770;11.440;2022-12-18T01:32:36;45.37;;;27.50;;
7402;SDS011;3742;48.770;11.440;2022-12-18T01:35:05;43.23;;;28.60;;
7402;SDS011;3742;48.770;11.440;2022-12-18T01:37:34;37.20;;;24.50;;
7402;SDS011;3742;48.770;11.440;2022-12-18T01:40:03;42.57;;;27.00;;
7402;SDS011;3742;48.770;11.440;2022-12-18T01:42:32;35.40;;;21.83;;
7402;SDS011;3742;48.770;11.440;2022-12-18T01:45:03;35.90;;;21.83;;
7402;SDS011;3742;48.770;11.440;2022-12-18T01:47:35;34.67;;;21.87;;
7402;SDS011;3742;48.770;11.440;2022-12-18T01:50:07;40.17;;;25.53;;
7402;SDS011;3742;48.770;11.440;2022-12-18T01:52:37;36.23;;;23.53;;
7402;SDS011;3742;48.770;11.440;2022-12-18T01:55:07;35.50;;;23.47;;
7402;SDS011;3742;48.770;11.440;2022-12-18T01:57:36;34.67;;;21.53;;
7402;SDS011;3742;48.770;11.440;2022-12-18T02:00:08;35.13;;;21.27;;
7402;SDS011;3742;48.770;11.440;2022-12-18T02:02:43;35.60;;;22.50;;
7402;SDS011;3742;48.770;11.440;2022-12-18T02:05:13;38.83;;;24.43;;
7402;SDS011;3742;48.770;11.440;2022-12-18T02:07:48;37.43;;;24.23;;
7402;SDS011;3742;48.770;11.440;2022-12-18T02:10:27;35.43;;;21.37;;
7402;SDS011;3742;48.770;11.440;2022-12-18T02:12:59;36.80;;;23.50;;
7402;SDS011;3742;48.770;11.440;2022-12-18T02:15:34;32.47;;;19.70;;
7402;SDS011;3742;48.770;11.440;2022-12-18T02:18:07;39.47;;;24.00;;
7402;SDS011;3742;48.770;11.440;2022-12-18T02:20:40;37.07;;;22.23;;
7402;SDS011;3742;48.770;11.440;2022-12-18T02:23:13;34.47;;;21.67;;
7402;SDS011;3742;48.770;11.440;2022-12-18T02:26:06;34.30;;;23.20;;
7402;SDS011;3742;48.770;11.440;2022-12-18T02:28:40;39.97;;;23.40;;
7402;SDS011;3742;48.770;11.440;2022-12-18T02:31:11;38.20;;;24.30;;
7402;SDS011;3742;48.770;11.440;2022-12-18T02:33:43;39.90;;;25.40;;
7402;SDS011;3742;48.770;11.440;2022-12-18T02:36:13;38.17;;;23.47;;
7402;SDS011;3742;48.770;11.440;2022-12-18T02:38:43;35.10;;;22.33;;
7402;SDS011;3742;48.770;11.440;2022-12-18T02:41:16;42.20;;;24.10;;
7402;SDS011;3742;48.770;11.440;2022-12-18T02:43:46;34.93;;;23.13;;
7402;SDS011;3742;48.770;11.440;2022-12-18T02:46:27;37.00;;;24.60;;
7402;SDS011;3742;48.770;11.440;2022-12-18T02:49:06;32.70;;;20.87;;
7402;SDS011;3742;48.770;11.440;2022-12-18T02:51:44;35.73;;;21.27;;
7402;SDS011;3742;48.770;11.440;2022-12-18T02:54:21;31.50;;;20.03;;
7402;SDS011;3742;48.770;11.440;2022-12-18T02:56:55;38.57;;;22.13;;
7402;SDS011;3742;48.770;11.440;2022-12-18T02:59:30;30.60;;;19.63;;
7402;SDS011;3742;48.770;11.440;2022-12-18T03:02:02;32.47;;;20.53;;
7402;SDS011;3742;48.770;11.440;2022-12-18T03:04:48;29.90;;;19.23;;
7402;SDS011;3742;48.770;11.440;2022-12-18T03:10:11;31.87;;;20.07;;
7402;SDS011;3742;48.770;11.440;2022-12-18T03:12:46;26.50;;;16.97;;
7402;SDS011;3742;48.770;11.440;2022-12-18T03:15:18;31.53;;;19.17;;
7402;SDS011;3742;48.770;11.440;2022-12-18T03:17:59;30.33;;;20.20;;
7402;SDS011;3742;48.770;11.440;2022-12-18T03:20:30;31.53;;;20.40;;
7402;SDS011;3742;48.770;11.440;2022-12-18T03:23:02;31.83;;;19.83;;
7402;SDS011;3742;48.770;11.440;2022-12-18T03:25:34;30.83;;;20.03;;
7402;SDS011;3742;48.770;11.440;2022-12-18T03:28:08;30.57;;;19.00;;
7402;SDS011;3742;48.770;11.440;2022-12-18T03:30:41;33.33;;;20.90;;
7402;SDS011;3742;48.770;11.440;2022-12-18T03:33:12;33.93;;;21.00;;
7402;SDS011;3742;48.770;11.440;2022-12-18T03:35:46;33.07;;;20.53;;
7402;SDS011;3742;48.770;11.440;2022-12-18T03:38:17;30.37;;;17.80;;
7402;SDS011;3742;48.770;11.440;2022-12-18T03:40:50;28.03;;;16.10;;
7402;SDS011;3742;48.770;11.440;2022-12-18T03:43:28;27.63;;;17.23;;
7402;SDS011;3742;48.770;11.440;2022-12-18T03:46:06;33.60;;;21.83;;
7402;SDS011;3742;48.770;11.440;2022-12-18T03:48:38;30.10;;;18.20;;
7402;SDS011;3742;48.770;11.440;2022-12-18T03:51:14;31.20;;;19.60;;
7402;SDS011;3742;48.770;11.440;2022-12-18T03:53:49;32.33;;;20.53;;
7402;SDS011;3742;48.770;11.440;2022-12-18T03:56:24;25.50;;;17.37;;
7402;SDS011;3742;48.770;11.440;2022-12-18T03:58:56;30.20;;;18.90;;
7402;SDS011;3742;48.770;11.440;2022-12-18T04:01:29;31.33;;;18.57;;
7402;SDS011;3742;48.770;11.440;2022-12-18T04:04:00;32.13;;;22.47;;
7402;SDS011;3742;48.770;11.440;2022-12-18T04:06:33;37.67;;;25.17;;
7402;SDS011;3742;48.770;11.440;2022-12-18T04:09:02;30.13;;;18.27;;
7402;SDS011;3742;48.770;11.440;2022-12-18T04:11:35;30.27;;;20.73;;
7402;SDS011;3742;48.770;11.440;2022-12-18T04:14:07;31.77;;;22.60;;
7402;SDS011;3742;48.770;11.440;2022-12-18T04:16:40;38.80;;;25.77;;
7402;SDS011;3742;48.770;11.440;2022-12-18T04:19:13;36.90;;;24.63;;
7402;SDS011;3742;48.770;11.440;2022-12-18T04:21:43;37.70;;;25.47;;
7402;SDS011;3742;48.770;11.440;2022-12-18T04:24:13;28.60;;;19.30;;
7402;SDS011;3742;48.770;11.440;2022-12-18T04:26:51;35.13;;;25.40;;
7402;SDS011;3742;48.770;11.440;2022-12-18T04:29:28;37.97;;;26.73;;
7402;SDS011;3742;48.770;11.440;2022-12-18T04:31:57;27.77;;;18.43;;
7402;SDS011;3742;48.770;11.440;2022-12-18T04:34:27;30.67;;;20.23;;
7402;SDS011;3742;48.770;11.440;2022-12-18T04:36:57;27.27;;;18.87;;
7402;SDS011;3742;48.770;11.440;2022-12-18T04:39:26;31.73;;;22.13;;
7402;SDS011;3742;48.770;11.440;2022-12-18T04:41:59;32.60;;;22.20;;
7402;SDS011;3742;48.770;11.440;2022-12-18T04:44:29;33.20;;;21.80;;
7402;SDS011;3742;48.770;11.440;2022-12-18T04:46:58;30.23;;;20.23;;
7402;SDS011;3742;48.770;11.440;2022-12-18T04:49:26;29.03;;;19.03;;
7402;SDS011;3742;48.770;11.440;2022-12-18T04:51:55;32.90;;;19.40;;
7402;SDS011;3742;48.770;11.440;2022-12-18T04:54:23;27.17;;;19.07;;
7402;SDS011;3742;48.770;11.440;2022-12-18T04:56:52;27.63;;;18.60;;
7402;SDS011;3742;48.770;11.440;2022-12-18T04:59:21;25.93;;;17.03;;
7402;SDS011;3742;48.770;11.440;2022-12-18T05:01:51;26.37;;;16.63;;
7402;SDS011;3742;48.770;11.440;2022-12-18T05:04:20;29.07;;;19.37;;
7402;SDS011;3742;48.770;11.440;2022-12-18T05:06:48;27.57;;;17.20;;
7402;SDS011;3742;48.770;11.440;2022-12-18T05:09:17;25.57;;;16.27;;
7402;SDS011;3742;48.770;11.440;2022-12-18T05:11:45;27.03;;;17.00;;
7402;SDS011;3742;48.770;11.440;2022-12-18T05:14:14;31.77;;;20.77;;
7402;SDS011;3742;48.770;11.440;2022-12-18T05:16:43;28.93;;;19.37;;
7402;SDS011;3742;48.770;11.440;2022-12-18T05:19:13;28.23;;;19.33;;
7402;SDS011;3742;48.770;11.440;2022-12-18T05:21:41;30.30;;;18.13;;
7402;SDS011;3742;48.770;11.440;2022-12-18T05:24:11;28.30;;;17.47;;
7402;SDS011;3742;48.770;11.440;2022-12-18T05:26:41;30.83;;;19.87;;
7402;SDS011;3742;48.770;11.440;2022-12-18T05:29:10;30.93;;;19.33;;
7402;SDS011;3742;48.770;11.440;2022-12-18T05:31:40;26.63;;;18.63;;
7402;SDS011;3742;48.770;11.440;2022-12-18T05:34:09;29.97;;;20.83;;
7402;SDS011;3742;48.770;11.440;2022-12-18T05:36:40;29.80;;;20.03;;
7402;SDS011;3742;48.770;11.440;2022-12-18T05:39:09;30.17;;;19.63;;
7402;SDS011;3742;48.770;11.440;2022-12-18T05:41:37;29.80;;;19.40;;
7402;SDS011;3742;48.770;11.440;2022-12-18T05:44:07;26.13;;;16.97;;
7402;SDS011;3742;48.770;11.440;2022-12-18T05:46:36;29.23;;;19.37;;
7402;SDS011;3742;48.770;11.440;2022-12-18T05:49:04;31.13;;;20.30;;
7402;SDS011;3742;48.770;11.440;2022-12-18T05:51:33;30.07;;;21.03;;
7402;SDS011;3742;48.770;11.440;2022-12-18T05:54:03;31.80;;;20.73;;
7402;SDS011;3742;48.770;11.440;2022-12-18T05:56:31;28.17;;;18.93;;
7402;SDS011;3742;48.770;11.440;2022-12-18T05:59:00;30.70;;;19.73;;
7402;SDS011;3742;48.770;11.440;2022-12-18T06:01:29;27.90;;;19.03;;
7402;SDS011;3742;48.770;11.440;2022-12-18T06:03:58;30.87;;;21.13;;
7402;SDS011;3742;48.770;11.440;2022-12-18T06:06:27;27.93;;;18.37;;
7402;SDS011;3742;48.770;11.440;2022-12-18T06:08:56;27.00;;;17.73;;
7402;SDS011;3742;48.770;11.440;2022-12-18T06:11:26;30.00;;;18.70;;
7402;SDS011;3742;48.770;11.440;2022-12-18T06:13:55;29.27;;;18.83;;
7402;SDS011;3742;48.770;11.440;2022-12-18T06:16:26;25.70;;;16.83;;
7402;SDS011;3742;48.770;11.440;2022-12-18T06:18:56;25.40;;;17.37;;
7402;SDS011;3742;48.770;11.440;2022-12-18T06:21:25;26.23;;;16.43;;
7402;SDS011;3742;48.770;11.440;2022-12-18T06:23:54;28.73;;;21.10;;
7402;SDS011;3742;48.770;11.440;2022-12-18T06:26:23;27.43;;;20.13;;
7402;SDS011;3742;48.770;11.440;2022-12-18T06:28:55;24.43;;;14.77;;
7402;SDS011;3742;48.770;11.440;2022-12-18T06:31:25;25.63;;;17.30;;
7402;SDS011;3742;48.770;11.440;2022-12-18T06:33:53;30.40;;;19.30;;
7402;SDS011;3742;48.770;11.440;2022-12-18T06:36:22;26.60;;;17.63;;
7402;SDS011;3742;48.770;11.440;2022-12-18T06:38:51;27.93;;;17.90;;
7402;SDS011;3742;48.770;11.440;2022-12-18T06:41:20;30.67;;;19.27;;
7402;SDS011;3742;48.770;11.440;2022-12-18T06:43:49;28.03;;;19.83;;
7402;SDS011;3742;48.770;11.440;2022-12-18T06:46:25;25.17;;;17.03;;
7402;SDS011;3742;48.770;11.440;2022-12-18T06:48:54;29.07;;;18.20;;
7402;SDS011;3742;48.770;11.440;2022-12-18T06:51:24;27.40;;;16.93;;
7402;SDS011;3742;48.770;11.440;2022-12-18T06:53:53;29.60;;;18.20;;
7402;SDS011;3742;48.770;11.440;2022-12-18T06:56:22;27.67;;;17.43;;
7402;SDS011;3742;48.770;11.440;2022-12-18T06:58:50;28.63;;;18.17;;
7402;SDS011;3742;48.770;11.440;2022-12-18T07:01:19;25.73;;;17.13;;
7402;SDS011;3742;48.770;11.440;2022-12-18T07:03:52;26.63;;;18.00;;
7402;SDS011;3742;48.770;11.440;2022-12-18T07:06:22;24.60;;;16.07;;
7402;SDS011;3742;48.770;11.440;2022-12-18T07:08:52;26.80;;;17.23;;
7402;SDS011;3742;48.770;11.440;2022-12-18T07:11:22;26.37;;;18.03;;
7402;SDS011;3742;48.770;11.440;2022-12-18T07:13:51;24.70;;;15.70;;
7402;SDS011;3742;48.770;11.440;2022-12-18T07:16:20;29.30;;;17.87;;
7402;SDS011;3742;48.770;11.440;2022-12-18T07:18:53;26.07;;;16.73;;
7402;SDS011;3742;48.770;11.440;2022-12-18T07:21:23;26.30;;;18.13;;
7402;SDS011;3742;48.770;11.440;2022-12-18T07:23:52;18.20;;;12.57;;
7402;SDS011;3742;48.770;11.440;2022-12-18T07:26:21;26.63;;;17.70;;
7402;SDS011;3742;48.770;11.440;2022-12-18T07:28:50;26.80;;;17.80;;
7402;SDS011;3742;48.770;11.440;2022-12-18T07:31:19;25.60;;;17.73;;
7402;SDS011;3742;48.770;11.440;2022-12-18T07:33:49;26.37;;;17.13;;
7402;SDS011;3742;48.770;11.440;2022-12-18T07:36:19;25.70;;;14.97;;
7402;SDS011;3742;48.770;11.440;2022-12-18T07:38:48;24.30;;;17.67;;
7402;SDS011;3742;48.770;11.440;2022-12-18T07:41:18;24.80;;;17.20;;
7402;SDS011;3742;48.770;11.440;2022-12-18T07:43:48;27.17;;;16.63;;
7402;SDS011;3742;48.770;11.440;2022-12-18T07:46:17;28.87;;;17.97;;
7402;SDS011;3742;48.770;11.440;2022-12-18T07:48:46;26.20;;;17.13;;
7402;SDS011;3742;48.770;11.440;2022-12-18T07:51:16;24.40;;;17.60;;
7402;SDS011;3742;48.770;11.440;2022-12-18T07:53:47;26.47;;;19.13;;
7402;SDS011;3742;48.770;11.440;2022-12-18T07:56:18;24.37;;;16.93;;
7402;SDS011;3742;48.770;11.440;2022-12-18T07:58:54;26.13;;;17.43;;
7402;SDS011;3742;48.770;11.440;2022-12-18T08:01:23;27.17;;;18.37;;
7402;SDS011;3742;48.770;11.440;2022-12-18T08:03:52;24.37;;;15.83;;
7402;SDS011;3742;48.770;11.440;2022-12-18T08:06:21;27.17;;;18.53;;
7402;SDS011;3742;48.770;11.440;2022-12-18T08:08:53;26.23;;;17.53;;
7402;SDS011;3742;48.770;11.440;2022-12-18T08:11:23;29.23;;;19.27;;
7402;SDS011;3742;48.770;11.440;2022-12-18T08:13:52;29.27;;;18.73;;
7402;SDS011;3742;48.770;11.440;2022-12-18T08:16:21;28.50;;;18.60;;
7402;SDS011;3742;48.770;11.440;2022-12-18T08:18:51;26.33;;;17.73;;
7402;SDS011;3742;48.770;11.440;2022-12-18T08:21:21;27.57;;;18.17;;
7402;SDS011;3742;48.770;11.440;2022-12-18T08:23:51;27.20;;;18.23;;
7402;SDS011;3742;48.770;11.440;2022-12-18T08:26:21;27.53;;;18.27;;
7402;SDS011;3742;48.770;11.440;2022-12-18T08:28:50;27.70;;;18.73;;
7402;SDS011;3742;48.770;11.440;2022-12-18T08:31:20;27.83;;;18.47;;
7402;SDS011;3742;48.770;11.440;2022-12-18T08:33:51;27.47;;;18.07;;
7402;SDS011;3742;48.770;11.440;2022-12-18T08:36:21;26.13;;;16.73;;
7402;SDS011;3742;48.770;11.440;2022-12-18T08:38:52;25.13;;;17.60;;
7402;SDS011;3742;48.770;11.440;2022-12-18T08:41:21;28.20;;;18.27;;
7402;SDS011;3742;48.770;11.440;2022-12-18T08:43:50;27.00;;;19.50;;
7402;SDS011;3742;48.770;11.440;2022-12-18T08:46:37;24.47;;;18.23;;
7402;SDS011;3742;48.770;11.440;2022-12-18T08:49:07;29.30;;;18.83;;
7402;SDS011;3742;48.770;11.440;2022-12-18T08:51:37;28.40;;;18.30;;
7402;SDS011;3742;48.770;11.440;2022-12-18T08:54:07;26.87;;;18.03;;
7402;SDS011;3742;48.770;11.440;2022-12-18T08:56:37;26.07;;;17.43;;
7402;SDS011;3742;48.770;11.440;2022-12-18T08:59:05;25.90;;;17.23;;
7402;SDS011;3742;48.770;11.440;2022-12-18T09:01:34;24.87;;;16.33;;
7402;SDS011;3742;48.770;11.440;2022-12-18T09:04:02;24.53;;;15.90;;
7402;SDS011;3742;48.770;11.440;2022-12-18T09:06:33;27.43;;;17.97;;
7402;SDS011;3742;48.770;11.440;2022-12-18T09:09:03;26.77;;;18.30;;
7402;SDS011;3742;48.770;11.440;2022-12-18T09:11:33;24.90;;;16.67;;
7402;SDS011;3742;48.770;11.440;2022-12-18T09:14:02;25.97;;;16.60;;
7402;SDS011;3742;48.770;11.440;2022-12-18T09:16:31;23.87;;;15.67;;
7402;SDS011;3742;48.770;11.440;2022-12-18T09:19:02;25.70;;;17.00;;
7402;SDS011;3742;48.770;11.440;2022-12-18T09:21:33;24.87;;;16.30;;
7402;SDS011;3742;48.770;11.440;2022-12-18T09:24:03;24.50;;;15.87;;
7402;SDS011;3742;48.770;11.440;2022-12-18T09:26:36;24.97;;;17.33;;
7402;SDS011;3742;48.770;11.440;2022-12-18T09:29:06;27.63;;;18.50;;
7402;SDS011;3742;48.770;11.440;2022-12-18T09:31:36;22.83;;;16.23;;
7402;SDS011;3742;48.770;11.440;2022-12-18T09:34:04;21.23;;;14.20;;
7402;SDS011;3742;48.770;11.440;2022-12-18T09:36:33;23.90;;;17.30;;
7402;SDS011;3742;48.770;11.440;2022-12-18T09:39:02;25.40;;;18.30;;
7402;SDS011;3742;48.770;11.440;2022-12-18T09:41:39;24.53;;;17.13;;
7402;SDS011;3742;48.770;11.440;2022-12-18T09:44:11;22.90;;;15.87;;
7402;SDS011;3742;48.770;11.440;2022-12-18T09:46:44;23.63;;;17.33;;
7402;SDS011;3742;48.770;11.440;2022-12-18T09:49:14;21.13;;;15.17;;
7402;SDS011;3742;48.770;11.440;2022-12-18T09:51:46;20.47;;;13.23;;
7402;SDS011;3742;48.770;11.440;2022-12-18T09:54:18;24.10;;;17.27;;
7402;SDS011;3742;48.770;11.440;2022-12-18T09:56:50;18.13;;;11.10;;
7402;SDS011;3742;48.770;11.440;2022-12-18T09:59:21;22.17;;;16.40;;
7402;SDS011;3742;48.770;11.440;2022-12-18T10:01:51;20.03;;;16.17;;
7402;SDS011;3742;48.770;11.440;2022-12-18T10:04:20;25.00;;;16.60;;
7402;SDS011;3742;48.770;11.440;2022-12-18T10:06:50;22.33;;;15.97;;
7402;SDS011;3742;48.770;11.440;2022-12-18T10:09:25;26.23;;;17.13;;
7402;SDS011;3742;48.770;11.440;2022-12-18T10:12:02;25.00;;;16.50;;
7402;SDS011;3742;48.770;11.440;2022-12-18T10:14:36;24.27;;;17.03;;
7402;SDS011;3742;48.770;11.440;2022-12-18T10:17:12;21.57;;;15.10;;
7402;SDS011;3742;48.770;11.440;2022-12-18T10:19:47;27.60;;;18.00;;
7402;SDS011;3742;48.770;11.440;2022-12-18T10:22:22;21.87;;;14.90;;
7402;SDS011;3742;48.770;11.440;2022-12-18T10:24:58;23.17;;;16.33;;
7402;SDS011;3742;48.770;11.440;2022-12-18T10:27:31;20.73;;;14.23;;
7402;SDS011;3742;48.770;11.440;2022-12-18T10:29:59;23.83;;;16.60;;
7402;SDS011;3742;48.770;11.440;2022-12-18T10:32:33;21.00;;;14.57;;
7402;SDS011;3742;48.770;11.440;2022-12-18T10:35:02;26.03;;;17.60;;
7402;SDS011;3742;48.770;11.440;2022-12-18T10:37:30;22.20;;;15.13;;
7402;SDS011;3742;48.770;11.440;2022-12-18T10:40:07;22.17;;;15.47;;
7402;SDS011;3742;48.770;11.440;2022-12-18T10:42:49;24.80;;;16.40;;
7402;SDS011;3742;48.770;11.440;2022-12-18T10:45:31;25.97;;;17.17;;
7402;SDS011;3742;48.770;11.440;2022-12-18T10:48:00;22.57;;;15.20;;
7402;SDS011;3742;48.770;11.440;2022-12-18T10:50:30;22.23;;;16.00;;
7402;SDS011;3742;48.770;11.440;2022-12-18T10:53:21;23.57;;;18.17;;
7402;SDS011;3742;48.770;11.440;2022-12-18T10:55:52;26.00;;;19.40;;
7402;SDS011;3742;48.770;11.440;2022-12-18T10:58:27;25.90;;;16.83;;
7402;SDS011;3742;48.770;11.440;2022-12-18T11:01:05;26.13;;;18.50;;
7402;SDS011;3742;48.770;11.440;2022-12-18T11:03:37;27.67;;;18.87;;
7402;SDS011;3742;48.770;11.440;2022-12-18T11:06:07;21.87;;;15.33;;
7402;SDS011;3742;48.770;11.440;2022-12-18T11:08:38;27.27;;;16.73;;
7402;SDS011;3742;48.770;11.440;2022-12-18T11:11:13;30.97;;;20.33;;
7402;SDS011;3742;48.770;11.440;2022-12-18T11:13:49;29.07;;;19.97;;
7402;SDS011;3742;48.770;11.440;2022-12-18T11:16:24;25.50;;;17.93;;
7402;SDS011;3742;48.770;11.440;2022-12-18T11:18:52;26.77;;;18.33;;
7402;SDS011;3742;48.770;11.440;2022-12-18T11:21:21;27.90;;;18.80;;
7402;SDS011;3742;48.770;11.440;2022-12-18T11:23:50;25.40;;;18.47;;
7402;SDS011;3742;48.770;11.440;2022-12-18T11:26:19;28.50;;;19.53;;
7402;SDS011;3742;48.770;11.440;2022-12-18T11:28:50;28.83;;;19.70;;
7402;SDS011;3742;48.770;11.440;2022-12-18T11:31:22;28.53;;;19.30;;
7402;SDS011;3742;48.770;11.440;2022-12-18T11:34:00;27.37;;;18.80;;
7402;SDS011;3742;48.770;11.440;2022-12-18T11:36:51;23.87;;;17.43;;
7402;SDS011;3742;48.770;11.440;2022-12-18T11:39:22;28.43;;;19.17;;
7402;SDS011;3742;48.770;11.440;2022-12-18T11:41:56;25.77;;;16.60;;
7402;SDS011;3742;48.770;11.440;2022-12-18T11:44:45;20.83;;;13.87;;
7402;SDS011;3742;48.770;11.440;2022-12-18T11:47:21;25.07;;;16.73;;
7402;SDS011;3742;48.770;11.440;2022-12-18T11:49:53;26.63;;;18.90;;
7402;SDS011;3742;48.770;11.440;2022-12-18T11:52:24;22.37;;;16.53;;
7402;SDS011;3742;48.770;11.440;2022-12-18T11:54:55;22.30;;;15.97;;
7402;SDS011;3742;48.770;11.440;2022-12-18T11:57:30;24.90;;;17.20;;
7402;SDS011;3742;48.770;11.440;2022-12-18T12:00:09;25.33;;;16.80;;
7402;SDS011;3742;48.770;11.440;2022-12-18T12:05:48;26.83;;;18.97;;
7402;SDS011;3742;48.770;11.440;2022-12-18T12:08:26;25.63;;;19.63;;
7402;SDS011;3742;48.770;11.440;2022-12-18T12:11:05;26.13;;;16.97;;
7402;SDS011;3742;48.770;11.440;2022-12-18T12:13:41;24.67;;;16.53;;
7402;SDS011;3742;48.770;11.440;2022-12-18T12:16:17;26.33;;;17.57;;
7402;SDS011;3742;48.770;11.440;2022-12-18T12:18:53;26.77;;;17.50;;
7402;SDS011;3742;48.770;11.440;2022-12-18T12:21:33;25.07;;;15.93;;
7402;SDS011;3742;48.770;11.440;2022-12-18T12:24:07;24.10;;;17.03;;
7402;SDS011;3742;48.770;11.440;2022-12-18T12:26:49;24.73;;;18.00;;
7402;SDS011;3742;48.770;11.440;2022-12-18T12:29:27;23.27;;;16.50;;
7402;SDS011;3742;48.770;11.440;2022-12-18T12:32:15;20.60;;;14.20;;
7402;SDS011;3742;48.770;11.440;2022-12-18T12:34:53;23.93;;;16.37;;
7402;SDS011;3742;48.770;11.440;2022-12-18T12:37:36;24.00;;;17.23;;
7402;SDS011;3742;48.770;11.440;2022-12-18T12:40:11;25.40;;;16.83;;
7402;SDS011;3742;48.770;11.440;2022-12-18T12:43:03;27.80;;;18.37;;
7402;SDS011;3742;48.770;11.440;2022-12-18T12:45:44;29.67;;;18.57;;
7402;SDS011;3742;48.770;11.440;2022-12-18T12:48:19;27.93;;;20.30;;
7402;SDS011;3742;48.770;11.440;2022-12-18T12:50:56;29.23;;;19.10;;
7402;SDS011;3742;48.770;11.440;2022-12-18T12:53:26;29.27;;;19.60;;
7402;SDS011;3742;48.770;11.440;2022-12-18T12:55:58;27.37;;;19.43;;
7402;SDS011;3742;48.770;11.440;2022-12-18T12:58:29;24.77;;;16.93;;
7402;SDS011;3742;48.770;11.440;2022-12-18T13:01:07;25.87;;;18.43;;
7402;SDS011;3742;48.770;11.440;2022-12-18T13:03:48;27.07;;;18.20;;
7402;SDS011;3742;48.770;11.440;2022-12-18T13:06:29;28.17;;;20.40;;
7402;SDS011;3742;48.770;11.440;2022-12-18T13:09:10;29.57;;;18.83;;
7402;SDS011;3742;48.770;11.440;2022-12-18T13:11:40;40.67;;;25.97;;
7402;SDS011;3742;48.770;11.440;2022-12-18T13:14:28;25.10;;;17.33;;
7402;SDS011;3742;48.770;11.440;2022-12-18T13:17:17;26.83;;;18.67;;
7402;SDS011;3742;48.770;11.440;2022-12-18T13:20:10;23.23;;;17.47;;
7402;SDS011;3742;48.770;11.440;2022-12-18T13:22:43;25.97;;;17.20;;
7402;SDS011;3742;48.770;11.440;2022-12-18T13:25:32;22.80;;;16.97;;
7402;SDS011;3742;48.770;11.440;2022-12-18T13:28:06;23.17;;;16.17;;
7402;SDS011;3742;48.770;11.440;2022-12-18T13:30:44;24.53;;;17.90;;
7402;SDS011;3742;48.770;11.440;2022-12-18T13:36:36;21.97;;;14.63;;
7402;SDS011;3742;48.770;11.440;2022-12-18T13:45:43;22.50;;;16.80;;
7402;SDS011;3742;48.770;11.440;2022-12-18T13:48:17;22.80;;;16.63;;
7402;SDS011;3742;48.770;11.440;2022-12-18T13:50:59;24.57;;;16.77;;
7402;SDS011;3742;48.770;11.440;2022-12-18T13:53:33;21.07;;;16.37;;
7402;SDS011;3742;48.770;11.440;2022-12-18T13:56:04;22.70;;;16.00;;
7402;SDS011;3742;48.770;11.440;2022-12-18T13:58:34;21.67;;;15.80;;
7402;SDS011;3742;48.770;11.440;2022-12-18T14:01:03;20.77;;;14.37;;
7402;SDS011;3742;48.770;11.440;2022-12-18T14:03:31;22.90;;;15.30;;
7402;SDS011;3742;48.770;11.440;2022-12-18T14:06:03;22.83;;;16.57;;
7402;SDS011;3742;48.770;11.440;2022-12-18T14:08:37;27.20;;;16.93;;
7402;SDS011;3742;48.770;11.440;2022-12-18T14:11:17;22.80;;;15.80;;
7402;SDS011;3742;48.770;11.440;2022-12-18T14:13:49;24.83;;;16.97;;
7402;SDS011;3742;48.770;11.440;2022-12-18T14:16:18;23.83;;;15.83;;
7402;SDS011;3742;48.770;11.440;2022-12-18T14:18:48;29.77;;;19.83;;
7402;SDS011;3742;48.770;11.440;2022-12-18T14:21:20;30.63;;;19.83;;
7402;SDS011;3742;48.770;11.440;2022-12-18T14:24:03;31.03;;;20.97;;
7402;SDS011;3742;48.770;11.440;2022-12-18T14:26:33;22.97;;;15.93;;
7402;SDS011;3742;48.770;11.440;2022-12-18T14:29:17;27.23;;;22.07;;
7402;SDS011;3742;48.770;11.440;2022-12-18T14:34:44;24.47;;;18.03;;
7402;SDS011;3742;48.770;11.440;2022-12-18T14:37:14;21.37;;;16.33;;
7402;SDS011;3742;48.770;11.440;2022-12-18T14:39:55;23.20;;;16.43;;
7402;SDS011;3742;48.770;11.440;2022-12-18T14:42:25;19.13;;;14.30;;
7402;SDS011;3742;48.770;11.440;2022-12-18T14:48:09;21.57;;;15.63;;
7402;SDS011;3742;48.770;11.440;2022-12-18T14:50:56;21.80;;;16.30;;
7402;SDS011;3742;48.770;11.440;2022-12-18T14:53:36;23.30;;;16.00;;
7402;SDS011;3742;48.770;11.440;2022-12-18T14:56:14;29.20;;;21.40;;
7402;SDS011;3742;48.770;11.440;2022-12-18T14:58:48;21.70;;;14.53;;
7402;SDS011;3742;48.770;11.440;2022-12-18T15:01:18;23.23;;;17.00;;
7402;SDS011;3742;48.770;11.440;2022-12-18T15:03:48;22.83;;;16.43;;
7402;SDS011;3742;48.770;11.440;2022-12-18T15:06:17;21.50;;;16.27;;
7402;SDS011;3742;48.770;11.440;2022-12-18T15:08:51;21.73;;;14.63;;
7402;SDS011;3742;48.770;11.440;2022-12-18T15:11:28;22.67;;;15.53;;
7402;SDS011;3742;48.770;11.440;2022-12-18T15:16:52;22.37;;;15.10;;
7402;SDS011;3742;48.770;11.440;2022-12-18T15:19:22;21.60;;;16.77;;
7402;SDS011;3742;48.770;11.440;2022-12-18T15:21:53;21.57;;;15.60;;
7402;SDS011;3742;48.770;11.440;2022-12-18T15:24:26;22.47;;;15.40;;
7402;SDS011;3742;48.770;11.440;2022-12-18T15:26:57;22.33;;;15.87;;